Monte Vista, Mississippi
Current Conditions -  °F | °C
As of 10:35 PM on Sunday 25 Jan 2015 (Local Time) from KSTF Reporting Station
Overcast Overcast  
Wind Chill: 41°   Ceiling: 3500
Heat Index: 46°   Visibility: 10mi
Dew Point: 37°   Wind: 10mph
Humidity: 71%   Direction: 300°WNW
Pressure: 29.88"   Gusts: 20mph
Location:  33.6047°N, 89.2754°W
Report Text: KSTF 260435Z AUTO 30009G17KT 272V332 10SM SCT031 BKN035 OVC041 08/03 A2988 RMK AO2
Loading
Personal Weather Stations






























Interactive Weather Map New forecast layout! Learn more

10-Day Weather Forecast

Advertisements
Track Severe Weather on mobile